createdAt,value
2019-05-26T00:01:12.664Z,19.07
2019-05-26T00:04:00.981Z,21.20
2019-05-26T00:06:30.160Z,20.67
2019-05-26T00:08:59.357Z,22.10
2019-05-26T00:11:47.604Z,23.00
2019-05-26T00:14:16.703Z,24.30
2019-05-26T00:16:45.741Z,24.73
2019-05-26T00:19:14.909Z,22.90
2019-05-26T00:21:44.044Z,25.20
2019-05-26T00:24:13.258Z,25.87
2019-05-26T00:26:42.345Z,24.37
2019-05-26T00:29:11.494Z,26.40
2019-05-26T00:31:40.496Z,29.77
2019-05-26T00:34:09.542Z,34.40
2019-05-26T00:36:38.907Z,30.27
2019-05-26T00:39:08.073Z,31.47
2019-05-26T00:41:37.166Z,25.40
2019-05-26T00:44:06.356Z,28.77
2019-05-26T00:46:35.471Z,29.17
2019-05-26T00:49:04.559Z,30.13
2019-05-26T00:51:33.676Z,33.63
2019-05-26T00:54:02.770Z,34.60
2019-05-26T00:56:31.980Z,35.17
2019-05-26T00:59:01.223Z,34.77
2019-05-26T01:02:11.160Z,34.50
2019-05-26T01:08:43.707Z,35.83
2019-05-26T01:14:23.894Z,37.53
2019-05-26T01:16:56.328Z,35.17
2019-05-26T01:19:31.855Z,36.30
2019-05-26T01:22:29.116Z,38.80
2019-05-26T01:24:58.425Z,35.00
2019-05-26T01:27:27.816Z,38.23
2019-05-26T01:29:56.808Z,36.27
2019-05-26T01:32:25.793Z,36.50
2019-05-26T01:35:14.042Z,36.50
2019-05-26T01:37:43.680Z,37.70
2019-05-26T01:40:13.114Z,37.20
2019-05-26T01:42:42.153Z,41.53
2019-05-26T01:45:11.351Z,42.17
2019-05-26T01:47:40.425Z,41.37
2019-05-26T01:50:28.622Z,41.70
2019-05-26T01:52:57.733Z,39.40
2019-05-26T01:55:26.901Z,44.30
2019-05-26T01:57:56.041Z,47.40
2019-05-26T02:00:25.790Z,47.50
2019-05-26T02:02:54.996Z,44.43
2019-05-26T02:05:43.264Z,52.37
2019-05-26T02:08:39.192Z,47.80
2019-05-26T02:11:31.009Z,43.17
2019-05-26T02:14:00.206Z,47.23
2019-05-26T02:16:29.329Z,48.13
2019-05-26T02:18:58.466Z,53.30
2019-05-26T02:21:27.604Z,52.13
2019-05-26T02:23:56.872Z,51.53
2019-05-26T02:26:45.108Z,51.90
2019-05-26T02:29:14.191Z,45.83
2019-05-26T02:32:11.478Z,49.73
2019-05-26T02:34:54.916Z,48.03
2019-05-26T02:37:11.629Z,44.87
2019-05-26T02:40:27.589Z,51.77
2019-05-26T02:42:11.816Z,51.83
2019-05-26T02:44:41.277Z,52.77
2019-05-26T02:47:10.440Z,51.70
2019-05-26T02:49:58.707Z,50.07
2019-05-26T02:52:47.237Z,48.43
2019-05-26T02:55:16.906Z,53.27
2019-05-26T02:58:05.099Z,44.13
2019-05-26T03:00:41.682Z,48.33
2019-05-26T03:03:11.357Z,44.37
2019-05-26T03:05:43.133Z,44.63
2019-05-26T03:08:12.665Z,48.60
2019-05-26T03:10:41.937Z,45.30
2019-05-26T03:13:14.534Z,45.27
2019-05-26T03:15:45.536Z,47.07
2019-05-26T03:18:15.293Z,47.67
2019-05-26T03:20:44.681Z,47.27
2019-05-26T03:23:15.355Z,44.13
2019-05-26T03:25:44.742Z,43.73
2019-05-26T03:28:13.892Z,46.17
2019-05-26T03:31:12.655Z,40.17
2019-05-26T03:33:33.368Z,44.70
2019-05-26T03:36:02.629Z,37.73
2019-05-26T03:38:31.738Z,46.30
2019-05-26T03:41:00.922Z,53.20
2019-05-26T03:43:30.041Z,49.27
2019-05-26T03:46:17.067Z,51.83
2019-05-26T03:48:46.420Z,51.60
2019-05-26T03:51:15.601Z,46.47
2019-05-26T03:53:44.760Z,54.53
2019-05-26T03:56:13.985Z,43.30
2019-05-26T03:58:43.196Z,48.27
2019-05-26T04:01:31.391Z,51.53
2019-05-26T04:04:00.566Z,39.43
2019-05-26T04:06:54.361Z,43.40
2019-05-26T04:10:02.588Z,47.37
2019-05-26T04:12:16.785Z,44.60
2019-05-26T04:14:46.020Z,38.90
2019-05-26T04:17:15.124Z,36.77
2019-05-26T04:19:44.232Z,39.57
2019-05-26T04:22:32.429Z,44.57
2019-05-26T04:31:14.382Z,36.73
2019-05-26T04:34:05.746Z,37.13
2019-05-26T04:36:49.886Z,35.37
2019-05-26T04:39:19.186Z,32.67
2019-05-26T04:41:48.456Z,26.20
2019-05-26T04:44:36.931Z,27.30
2019-05-26T04:47:06.221Z,25.43
2019-05-26T04:49:55.798Z,28.53
2019-05-26T04:53:05.366Z,35.17
2019-05-26T04:58:25.901Z,29.20
2019-05-26T05:00:55.116Z,25.17
2019-05-26T05:03:59.770Z,31.00
2019-05-26T05:06:49.348Z,26.30
2019-05-26T05:09:18.974Z,31.90
2019-05-26T05:12:07.282Z,27.67
2019-05-26T05:14:42.532Z,23.60
2019-05-26T05:17:11.776Z,24.77
2019-05-26T05:20:00.076Z,22.47
2019-05-26T05:22:35.822Z,23.03
2019-05-26T05:25:13.221Z,21.03
2019-05-26T05:27:36.087Z,26.27
2019-05-26T05:30:30.475Z,23.53
2019-05-26T05:33:18.696Z,22.57
2019-05-26T05:36:07.050Z,20.97
2019-05-26T05:38:36.254Z,20.53
2019-05-26T05:41:11.429Z,21.60
2019-05-26T05:43:40.487Z,16.60
2019-05-26T05:46:16.524Z,18.23
2019-05-26T05:48:45.740Z,17.87
2019-05-26T05:51:14.874Z,18.67
2019-05-26T05:53:44.019Z,24.53
2019-05-26T05:56:13.429Z,21.07
2019-05-26T05:58:42.672Z,19.83
2019-05-26T06:01:11.861Z,25.53
2019-05-26T06:03:40.856Z,22.10
2019-05-26T06:06:09.927Z,19.00
2019-05-26T06:08:39.057Z,20.17
2019-05-26T06:11:16.571Z,18.27
2019-05-26T06:13:41.796Z,20.67
2019-05-26T06:16:30.028Z,16.20
2019-05-26T06:18:59.134Z,15.57
2019-05-26T06:21:47.531Z,15.90
2019-05-26T06:24:35.794Z,20.50
2019-05-26T06:27:08.144Z,20.67
2019-05-26T06:29:59.198Z,18.57
2019-05-26T06:32:31.019Z,17.43
2019-05-26T06:41:32.248Z,21.83
2019-05-26T06:49:39.534Z,26.67
2019-05-26T06:52:27.770Z,19.23
2019-05-26T06:54:56.967Z,21.63
2019-05-26T06:57:26.072Z,20.60
2019-05-26T06:59:55.208Z,21.10
2019-05-26T07:02:24.285Z,28.50
2019-05-26T07:04:53.378Z,21.33
2019-05-26T07:07:22.641Z,20.30
2019-05-26T07:09:51.672Z,21.33
2019-05-26T07:12:20.789Z,18.87
2019-05-26T07:15:10.106Z,17.77
2019-05-26T07:17:42.373Z,20.00
2019-05-26T07:20:11.658Z,23.70
2019-05-26T07:22:40.779Z,22.50
2019-05-26T07:25:10.153Z,21.57
2019-05-26T07:27:39.303Z,17.40
2019-05-26T07:30:27.806Z,24.17
2019-05-26T07:32:56.926Z,22.37
2019-05-26T07:42:28.719Z,24.07
2019-05-26T07:45:17.016Z,16.17
2019-05-26T07:47:49.163Z,22.13
2019-05-26T07:50:21.361Z,20.30
2019-05-26T07:53:09.576Z,18.07
2019-05-26T07:55:57.799Z,17.50
2019-05-26T07:58:30.606Z,17.03
2019-05-26T08:01:01.449Z,20.57
2019-05-26T08:03:52.425Z,30.40
2019-05-26T08:06:25.278Z,26.83
2019-05-26T08:08:54.504Z,24.53
2019-05-26T08:11:23.677Z,17.30
2019-05-26T08:13:52.804Z,17.60
2019-05-26T08:16:21.956Z,19.03
2019-05-26T08:18:51.078Z,18.13
2019-05-26T08:21:20.273Z,21.33
2019-05-26T08:23:49.365Z,23.37
2019-05-26T08:26:37.587Z,17.40
2019-05-26T08:29:15.516Z,18.10
2019-05-26T08:31:44.613Z,18.90
2019-05-26T08:34:13.704Z,17.83
2019-05-26T08:36:42.831Z,19.10
2019-05-26T08:39:34.714Z,20.53
2019-05-26T08:42:03.838Z,21.30
2019-05-26T08:44:32.989Z,19.20
2019-05-26T08:47:21.314Z,19.07
2019-05-26T08:49:52.613Z,19.50
2019-05-26T08:55:50.329Z,20.33
2019-05-26T08:58:19.685Z,16.23
2019-05-26T09:00:48.871Z,16.57
2019-05-26T09:03:37.008Z,14.97
2019-05-26T09:06:06.108Z,16.47
2019-05-26T09:08:35.239Z,18.50
2019-05-26T09:11:04.355Z,15.57
2019-05-26T09:13:33.455Z,17.27
2019-05-26T09:16:21.681Z,15.93
2019-05-26T09:18:53.726Z,15.87
2019-05-26T09:21:22.838Z,16.90
2019-05-26T09:24:11.126Z,17.83
2019-05-26T09:26:43.315Z,14.83
2019-05-26T09:29:14.161Z,16.00
2019-05-26T09:32:02.407Z,16.07
2019-05-26T09:34:35.054Z,17.07
2019-05-26T09:37:23.297Z,14.53
2019-05-26T09:39:58.302Z,14.10
2019-05-26T09:45:47.561Z,12.63
2019-05-26T09:54:17.010Z,16.83
2019-05-26T09:57:05.333Z,15.63
2019-05-26T09:59:37.473Z,13.87
2019-05-26T10:02:06.690Z,11.60
2019-05-26T10:04:54.940Z,15.47
2019-05-26T10:07:24.065Z,11.37
2019-05-26T10:13:03.347Z,13.53
2019-05-26T10:16:15.960Z,9.47
2019-05-26T10:25:18.339Z,12.03
2019-05-26T10:27:47.486Z,16.93
2019-05-26T10:43:06.371Z,14.60
2019-05-26T10:45:35.521Z,15.30
2019-05-26T10:48:04.612Z,19.97
2019-05-26T10:50:33.667Z,11.57
2019-05-26T10:53:02.817Z,16.10
2019-05-26T10:55:51.098Z,19.50
2019-05-26T10:58:36.988Z,14.43
2019-05-26T11:01:06.159Z,14.60
2019-05-26T11:03:54.321Z,12.60
2019-05-26T11:06:26.660Z,15.40
2019-05-26T11:14:34.459Z,18.57
2019-05-26T11:17:50.808Z,14.70
2019-05-26T11:20:34.642Z,13.50
2019-05-26T11:26:40.340Z,17.50
2019-05-26T11:29:09.423Z,13.23
2019-05-26T11:31:38.596Z,15.33
2019-05-26T11:34:07.668Z,17.00
2019-05-26T11:36:36.704Z,12.30
2019-05-26T11:40:41.640Z,16.47
2019-05-26T11:43:16.482Z,14.13
2019-05-26T11:45:36.344Z,18.13
2019-05-26T11:48:33.644Z,11.87
2019-05-26T11:54:00.578Z,10.13
2019-05-26T11:56:29.680Z,11.07
2019-05-26T11:59:39.746Z,15.93
2019-05-26T12:02:09.116Z,11.03
2019-05-26T12:04:38.078Z,12.43
2019-05-26T12:07:26.268Z,16.57
2019-05-26T12:13:06.671Z,6.10
2019-05-26T12:15:47.805Z,7.60
2019-05-26T12:18:20.715Z,8.60
2019-05-26T12:21:03.319Z,7.17
2019-05-26T12:24:08.082Z,10.07
2019-05-26T12:26:40.205Z,12.43
2019-05-26T12:29:09.313Z,13.10
2019-05-26T12:31:38.334Z,9.83
2019-05-26T12:34:07.429Z,10.27
2019-05-26T12:36:39.249Z,8.93
2019-05-26T12:39:08.461Z,10.87
2019-05-26T12:41:37.704Z,9.50
2019-05-26T12:44:10.143Z,8.97
2019-05-26T12:46:57.372Z,6.83
2019-05-26T12:49:27.853Z,6.43
2019-05-26T12:55:23.559Z,12.93
2019-05-26T12:57:52.702Z,11.53
2019-05-26T13:00:48.832Z,9.47
2019-05-26T13:03:11.815Z,12.27
2019-05-26T13:06:00.024Z,13.90
2019-05-26T13:08:32.513Z,16.30
2019-05-26T13:11:22.892Z,11.10
2019-05-26T13:13:51.915Z,12.13
2019-05-26T13:16:21.007Z,13.73
2019-05-26T13:19:09.364Z,10.37
2019-05-26T13:21:39.281Z,7.80
2019-05-26T13:24:10.071Z,6.93
2019-05-26T13:26:39.216Z,10.17
2019-05-26T13:29:27.431Z,9.03
2019-05-26T13:32:08.701Z,12.40
2019-05-26T13:34:29.184Z,8.57
2019-05-26T13:37:10.044Z,10.70
2019-05-26T13:39:39.142Z,10.87
2019-05-26T13:42:30.412Z,12.20
2019-05-26T13:45:22.839Z,10.63
2019-05-26T13:47:49.509Z,11.03
2019-05-26T13:50:37.667Z,13.73
2019-05-26T13:53:25.929Z,6.47
2019-05-26T13:55:55.039Z,6.77
2019-05-26T13:58:24.419Z,11.00
2019-05-26T14:00:53.500Z,11.13
2019-05-26T14:03:41.912Z,15.50
2019-05-26T14:06:30.291Z,6.70
2019-05-26T14:09:02.128Z,9.63
2019-05-26T14:11:30.235Z,6.07
2019-05-26T14:17:13.850Z,7.83
2019-05-26T14:20:02.200Z,11.40
2019-05-26T14:22:35.193Z,8.63
2019-05-26T14:25:50.813Z,15.17
2019-05-26T14:28:31.812Z,6.47
2019-05-26T14:31:00.854Z,8.60
2019-05-26T14:33:29.979Z,6.60
2019-05-26T14:35:58.948Z,10.63
2019-05-26T14:38:42.241Z,8.10
2019-05-26T14:40:58.806Z,7.20
2019-05-26T14:43:27.887Z,8.93
2019-05-26T14:46:16.298Z,8.97
2019-05-26T14:48:45.469Z,8.00
2019-05-26T14:51:33.908Z,16.00
2019-05-26T14:54:02.926Z,8.23
2019-05-26T14:56:32.033Z,11.40
2019-05-26T14:59:01.104Z,9.57
2019-05-26T15:01:30.200Z,9.73
2019-05-26T15:03:59.376Z,9.13
2019-05-26T15:06:47.684Z,12.57
2019-05-26T15:09:35.900Z,7.73
2019-05-26T15:12:05.075Z,10.67
2019-05-26T15:14:53.302Z,11.37
2019-05-26T15:17:41.533Z,10.53
2019-05-26T15:20:12.687Z,12.53
2019-05-26T15:23:00.888Z,8.23
2019-05-26T15:25:49.121Z,5.57
2019-05-26T15:28:36.517Z,10.90
2019-05-26T15:31:24.701Z,7.50
2019-05-26T15:34:05.154Z,9.30
2019-05-26T15:36:37.804Z,7.63
2019-05-26T15:39:27.458Z,9.87
2019-05-26T15:42:08.434Z,16.50
2019-05-26T15:45:15.977Z,6.93
2019-05-26T15:48:34.640Z,6.03
2019-05-26T15:51:07.872Z,9.23
2019-05-26T15:56:30.143Z,9.63
2019-05-26T15:59:35.812Z,4.17
2019-05-26T16:02:14.128Z,6.33
2019-05-26T16:04:45.695Z,6.50
2019-05-26T16:07:27.620Z,9.33
2019-05-26T16:09:56.686Z,8.37
2019-05-26T16:12:25.761Z,6.27
2019-05-26T16:14:54.839Z,10.70
2019-05-26T16:17:23.842Z,9.33
2019-05-26T16:22:42.961Z,13.70
2019-05-26T16:25:12.340Z,11.27
2019-05-26T16:27:41.423Z,14.23
2019-05-26T16:30:29.637Z,10.73
2019-05-26T16:32:58.872Z,10.97
2019-05-26T16:35:47.119Z,9.67
2019-05-26T16:38:27.772Z,13.00
2019-05-26T16:41:00.735Z,10.80
2019-05-26T16:43:29.788Z,12.20
2019-05-26T16:46:17.956Z,14.57
2019-05-26T16:49:09.170Z,10.47
2019-05-26T16:51:38.472Z,6.13
2019-05-26T16:54:30.059Z,7.90
2019-05-26T16:56:59.252Z,9.83
2019-05-26T17:00:08.448Z,5.70
2019-05-26T17:02:37.577Z,10.93
2019-05-26T17:05:29.448Z,8.30
2019-05-26T17:08:02.053Z,8.43
2019-05-26T17:10:35.007Z,13.70
2019-05-26T17:13:07.868Z,11.23
2019-05-26T17:15:56.096Z,13.67
2019-05-26T17:18:34.145Z,13.73
2019-05-26T17:21:41.691Z,9.63
2019-05-26T17:24:13.915Z,5.50
2019-05-26T17:27:03.129Z,13.07
2019-05-26T17:29:32.238Z,11.37
2019-05-26T17:32:23.504Z,6.73
2019-05-26T17:35:13.841Z,12.23
2019-05-26T17:37:44.193Z,17.50
2019-05-26T17:40:32.366Z,11.90
2019-05-26T17:45:48.503Z,15.97
2019-05-26T17:48:55.929Z,13.03
2019-05-26T17:51:31.267Z,7.77
2019-05-26T17:54:10.177Z,6.50
2019-05-26T17:57:30.397Z,17.97
2019-05-26T18:00:08.520Z,12.63
2019-05-26T18:03:19.282Z,17.73
2019-05-26T18:05:58.660Z,16.80
2019-05-26T18:08:28.644Z,15.20
2019-05-26T18:29:15.664Z,26.50
2019-05-26T18:32:05.844Z,18.30
2019-05-26T18:34:38.192Z,16.17
2019-05-26T18:37:07.505Z,23.80
2019-05-26T18:39:36.632Z,24.20
2019-05-26T18:42:06.018Z,37.70
2019-05-26T18:44:54.305Z,32.30
2019-05-26T18:47:23.461Z,48.50
2019-05-26T18:49:52.609Z,44.97
2019-05-26T18:52:21.996Z,61.50
2019-05-26T18:55:10.279Z,69.77
2019-05-26T18:57:39.340Z,85.63
2019-05-26T19:00:08.688Z,66.17
2019-05-26T19:02:37.794Z,71.10
2019-05-26T19:05:06.937Z,46.20
2019-05-26T19:07:36.035Z,68.97
2019-05-26T19:10:05.849Z,65.73
2019-05-26T19:12:34.919Z,70.17
2019-05-26T19:15:04.032Z,61.27
2019-05-26T19:17:33.319Z,38.20
2019-05-26T19:23:01.619Z,38.53
2019-05-26T19:25:30.844Z,8.63
2019-05-26T19:27:59.911Z,17.37
2019-05-26T19:30:28.988Z,7.13
2019-05-26T19:32:58.110Z,4.30
2019-05-26T19:35:27.165Z,16.63
2019-05-26T19:37:56.383Z,6.83
2019-05-26T19:40:25.473Z,19.93
2019-05-26T19:42:54.467Z,16.77
2019-05-26T19:45:23.673Z,20.80
2019-05-26T19:47:52.778Z,13.70
2019-05-26T19:50:21.944Z,15.67
2019-05-26T19:52:51.040Z,26.43
2019-05-26T19:55:20.168Z,33.10
2019-05-26T19:57:49.380Z,27.30
2019-05-26T20:00:19.032Z,23.80
2019-05-26T20:02:48.291Z,24.60
2019-05-26T20:05:17.744Z,43.40
2019-05-26T20:07:46.951Z,23.57
2019-05-26T20:10:16.321Z,45.33
2019-05-26T20:12:45.322Z,16.37
2019-05-26T20:15:16.006Z,9.87
2019-05-26T20:17:45.190Z,22.70
2019-05-26T20:20:14.573Z,39.00
2019-05-26T20:22:43.722Z,19.53
2019-05-26T20:25:13.020Z,10.63
2019-05-26T20:27:42.157Z,25.30
2019-05-26T20:30:12.722Z,40.40
2019-05-26T20:32:41.813Z,24.33
2019-05-26T20:35:12.113Z,30.97
2019-05-26T20:37:41.176Z,29.20
2019-05-26T20:40:10.650Z,56.70
2019-05-26T20:42:39.722Z,0.30
2019-05-26T20:45:09.213Z,0.30
2019-05-26T20:47:38.308Z,0.30
2019-05-26T20:50:07.572Z,0.33
2019-05-26T20:52:36.781Z,0.33
2019-05-26T20:55:05.976Z,0.30
2019-05-26T20:57:35.043Z,23.03
2019-05-26T21:00:05.260Z,26.10
2019-05-26T21:02:34.532Z,28.17
2019-05-26T21:05:03.703Z,39.33
2019-05-26T21:07:32.763Z,30.03
2019-05-26T21:10:01.853Z,48.70
2019-05-26T21:12:30.898Z,39.80
2019-05-26T21:15:01.098Z,72.90
2019-05-26T21:17:30.415Z,62.83
2019-05-26T21:19:59.539Z,36.00
2019-05-26T21:22:28.604Z,7.63
2019-05-26T21:24:57.728Z,36.60
2019-05-26T21:27:26.803Z,29.10
2019-05-26T21:29:56.080Z,67.93
2019-05-26T21:32:25.168Z,44.17
2019-05-26T21:34:54.108Z,73.73
2019-05-26T21:37:23.352Z,6.00
2019-05-26T21:39:52.362Z,87.97
2019-05-26T21:42:21.763Z,37.90
2019-05-26T21:44:50.817Z,25.03
2019-05-26T21:47:19.818Z,54.83
2019-05-26T21:49:48.888Z,6.67
2019-05-26T21:52:17.974Z,63.17
2019-05-26T21:54:47.125Z,20.87
2019-05-26T21:57:16.301Z,49.23
2019-05-26T21:59:45.419Z,36.53
2019-05-26T22:02:14.564Z,21.17
2019-05-26T22:04:43.615Z,22.20
2019-05-26T22:07:12.678Z,9.43
2019-05-26T22:09:41.774Z,12.17
2019-05-26T22:12:10.833Z,6.00
2019-05-26T22:14:39.988Z,5.23
2019-05-26T22:17:09.101Z,60.27
2019-05-26T22:19:38.279Z,71.80
2019-05-26T22:22:07.287Z,56.47
2019-05-26T22:24:36.255Z,39.20
2019-05-26T22:27:05.372Z,32.80
2019-05-26T22:29:34.441Z,58.47
2019-05-26T22:32:03.629Z,31.27
2019-05-26T22:34:32.733Z,45.27
2019-05-26T22:37:01.741Z,12.27
2019-05-26T22:39:30.732Z,59.03
2019-05-26T22:41:59.794Z,15.20
2019-05-26T22:44:28.766Z,2.30
2019-05-26T22:46:57.921Z,26.90
2019-05-26T22:49:26.973Z,19.33
2019-05-26T22:51:55.861Z,54.37
2019-05-26T22:54:24.900Z,60.27
2019-05-26T22:56:54.020Z,20.27
2019-05-26T22:59:23.072Z,19.37
2019-05-26T23:01:52.163Z,34.47
2019-05-26T23:04:21.388Z,0.40
2019-05-26T23:06:50.432Z,16.07
2019-05-26T23:09:19.433Z,28.13
2019-05-26T23:11:48.432Z,29.50
2019-05-26T23:14:17.569Z,11.23
2019-05-26T23:16:46.663Z,51.33
2019-05-26T23:19:19.188Z,29.07
2019-05-26T23:21:46.444Z,16.13
2019-05-26T23:24:15.556Z,35.23
2019-05-26T23:26:44.607Z,60.57
2019-05-26T23:29:13.718Z,20.47
2019-05-26T23:31:42.760Z,31.70
2019-05-26T23:34:11.705Z,6.07
2019-05-26T23:36:40.816Z,67.83
2019-05-26T23:39:09.982Z,4.87
2019-05-26T23:41:39.075Z,28.87
2019-05-26T23:44:08.136Z,4.87
2019-05-26T23:46:37.123Z,1.17
2019-05-26T23:49:06.207Z,13.57
2019-05-26T23:51:35.201Z,28.13
2019-05-26T23:54:04.255Z,7.83
2019-05-26T23:56:33.315Z,24.97
2019-05-26T23:59:02.384Z,19.50
